createdAt,value
2023-04-16T08:31:49.394Z,11.76
2023-04-16T08:33:52.259Z,11.76
2023-04-16T08:35:54.623Z,11.57
2023-04-16T08:37:57.984Z,11.41
2023-04-16T08:40:01.146Z,11.44
2023-04-16T08:42:06.362Z,11.69
2023-04-16T08:44:10.144Z,11.75
2023-04-16T08:46:12.945Z,11.66
2023-04-16T08:48:15.836Z,11.59
2023-04-16T08:50:24.161Z,11.84
2023-04-16T08:52:31.283Z,11.91
2023-04-16T08:55:12.813Z,12.20
2023-04-16T08:57:19.158Z,11.95
2023-04-16T08:59:22.327Z,11.91
2023-04-16T09:01:26.853Z,12.02
2023-04-16T09:03:33.215Z,12.46
2023-04-16T09:05:37.888Z,12.71
2023-04-16T09:07:42.216Z,12.73
2023-04-16T09:09:46.424Z,12.97
2023-04-16T09:11:53.157Z,13.08
2023-04-16T09:13:55.542Z,13.43
2023-04-16T09:15:58.233Z,13.41
2023-04-16T09:18:00.969Z,13.83
2023-04-16T09:20:12.578Z,14.39
2023-04-16T09:22:15.111Z,14.36
2023-04-16T09:24:18.709Z,13.76
2023-04-16T09:26:21.913Z,13.51
2023-04-16T09:28:43.666Z,13.50
2023-04-16T09:30:46.284Z,13.66
2023-04-16T09:32:50.059Z,14.00
2023-04-16T09:34:57.317Z,13.97
2023-04-16T09:37:18.503Z,13.91
2023-04-16T09:39:20.881Z,13.97
2023-04-16T09:41:28.563Z,14.00
2023-04-16T09:43:32.056Z,14.04
2023-04-16T09:45:49.017Z,13.97
2023-04-16T09:47:51.632Z,14.30
2023-04-16T09:49:59.174Z,14.19
2023-04-16T09:52:02.452Z,13.90
2023-04-16T09:54:06.680Z,14.03
2023-04-16T09:56:09.909Z,14.09
2023-04-16T09:58:12.735Z,14.23
2023-04-16T10:00:18.940Z,13.71
2023-04-16T10:02:23.326Z,14.05
2023-04-16T10:04:26.012Z,14.75
2023-04-16T10:06:29.555Z,14.69
2023-04-16T10:08:32.151Z,14.83
2023-04-16T10:10:34.518Z,14.78
2023-04-16T10:12:36.880Z,14.27
2023-04-16T10:14:40.213Z,14.84
2023-04-16T10:16:44.111Z,14.98
2023-04-16T10:18:47.434Z,14.64
2023-04-16T10:20:53.240Z,15.09
2023-04-16T10:22:56.835Z,15.45
2023-04-16T10:24:59.472Z,15.88
2023-04-16T10:27:02.621Z,16.84
2023-04-16T10:29:06.811Z,17.24
2023-04-16T10:31:09.752Z,16.66
2023-04-16T10:33:12.745Z,15.43
2023-04-16T10:35:16.902Z,15.53
2023-04-16T10:37:19.370Z,16.23
2023-04-16T10:39:24.123Z,16.60
2023-04-16T10:41:27.382Z,17.16
2023-04-16T10:43:31.857Z,16.68
2023-04-16T10:45:38.157Z,17.23
2023-04-16T10:47:40.786Z,16.25
2023-04-16T10:49:44.133Z,16.61
2023-04-16T10:51:59.172Z,16.94
2023-04-16T10:54:08.509Z,17.54
2023-04-16T10:56:14.177Z,17.11
2023-04-16T10:58:30.679Z,17.58
2023-04-16T11:00:49.430Z,17.88
2023-04-16T11:02:54.805Z,17.52
2023-04-16T11:04:58.799Z,17.84
2023-04-16T11:07:19.463Z,18.36
2023-04-16T11:09:50.573Z,18.59
2023-04-16T11:11:53.893Z,18.52
2023-04-16T11:13:57.165Z,18.46
2023-04-16T11:16:00.020Z,17.79
2023-04-16T11:18:04.235Z,18.46
2023-04-16T11:20:20.899Z,19.31
2023-04-16T11:22:24.328Z,19.03
2023-04-16T11:24:30.945Z,19.62
2023-04-16T11:26:33.266Z,18.95
2023-04-16T11:28:36.004Z,18.88
2023-04-16T11:30:39.656Z,19.25
2023-04-16T11:32:44.065Z,19.69
2023-04-16T11:34:46.470Z,20.05
2023-04-16T11:36:51.990Z,20.08
2023-04-16T11:39:02.140Z,19.99
2023-04-16T11:41:04.521Z,19.84
2023-04-16T11:43:15.008Z,19.19
2023-04-16T11:45:19.465Z,18.66
2023-04-16T11:47:24.114Z,19.26
2023-04-16T11:49:28.965Z,18.12
2023-04-16T11:51:32.531Z,17.55
2023-04-16T11:53:36.538Z,18.04
2023-04-16T11:55:45.799Z,18.43
2023-04-16T11:57:48.473Z,18.50
2023-04-16T12:00:01.588Z,18.19
2023-04-16T12:02:14.786Z,18.48
2023-04-16T12:04:20.580Z,18.68
2023-04-16T12:06:24.405Z,18.61
2023-04-16T12:08:30.998Z,18.34
2023-04-16T12:10:52.511Z,18.83
2023-04-16T12:12:54.990Z,18.56
2023-04-16T12:14:59.663Z,18.72
2023-04-16T12:17:21.627Z,19.14
2023-04-16T12:19:24.054Z,19.58
2023-04-16T12:21:35.597Z,20.01
2023-04-16T12:23:38.145Z,20.55
2023-04-16T12:25:43.098Z,21.59
2023-04-16T12:27:51.330Z,21.41
2023-04-16T12:30:07.270Z,20.29
2023-04-16T12:32:23.444Z,20.10
2023-04-16T12:34:48.208Z,20.19
2023-04-16T12:37:02.892Z,20.50
2023-04-16T12:39:05.298Z,20.33
2023-04-16T12:41:07.779Z,21.03
2023-04-16T12:43:10.796Z,21.21
2023-04-16T12:45:13.220Z,20.31
2023-04-16T12:47:15.796Z,20.08
2023-04-16T12:49:18.694Z,19.39
2023-04-16T12:51:21.061Z,19.65
2023-04-16T12:53:23.399Z,19.71
2023-04-16T12:55:26.110Z,18.87
2023-04-16T12:57:28.883Z,19.87
2023-04-16T12:59:31.245Z,21.00
2023-04-16T13:01:36.802Z,19.89
2023-04-16T13:03:39.400Z,21.03
2023-04-16T13:05:41.993Z,22.44
2023-04-16T13:07:44.969Z,22.18
2023-04-16T13:09:47.674Z,21.82
2023-04-16T13:11:49.980Z,21.89
2023-04-16T13:13:52.752Z,21.17
2023-04-16T13:15:55.394Z,21.38
2023-04-16T13:17:57.912Z,21.15
2023-04-16T13:20:00.706Z,20.60
2023-04-16T13:22:03.140Z,19.50
2023-04-16T13:24:05.984Z,20.40
2023-04-16T13:26:08.791Z,19.51
2023-04-16T13:28:11.590Z,19.13
2023-04-16T13:30:14.657Z,19.29
2023-04-16T13:32:18.955Z,19.52
2023-04-16T13:34:21.555Z,19.42
2023-04-16T13:36:25.057Z,19.09
2023-04-16T13:38:29.036Z,19.02
2023-04-16T13:40:32.861Z,18.73
2023-04-16T13:42:35.203Z,18.16
2023-04-16T13:44:37.846Z,18.11
2023-04-16T13:46:40.739Z,19.03
2023-04-16T13:48:43.136Z,19.15
2023-04-16T13:50:46.246Z,19.27
2023-04-16T13:52:49.000Z,18.35
2023-04-16T13:54:51.678Z,18.42
2023-04-16T13:56:54.887Z,18.05
2023-04-16T13:58:57.257Z,18.04
2023-04-16T14:01:00.474Z,18.32
2023-04-16T14:03:03.944Z,18.06
2023-04-16T14:05:07.112Z,18.09
2023-04-16T14:07:09.934Z,18.14
2023-04-16T14:09:13.123Z,18.25
2023-04-16T14:11:15.931Z,18.83
2023-04-16T14:13:18.404Z,18.91
2023-04-16T14:15:21.411Z,18.92
2023-04-16T14:17:23.831Z,18.34
2023-04-16T14:19:26.856Z,18.35
2023-04-16T14:21:31.217Z,18.16
2023-04-16T14:23:34.003Z,18.31
2023-04-16T14:25:36.661Z,17.99
2023-04-16T14:27:39.607Z,17.68
2023-04-16T14:29:42.058Z,17.58
2023-04-16T14:31:45.970Z,17.10
2023-04-16T14:33:48.598Z,17.18
2023-04-16T14:35:51.527Z,17.43
2023-04-16T14:37:53.890Z,17.41
2023-04-16T14:39:56.970Z,17.08
2023-04-16T14:41:59.829Z,17.41
2023-04-16T14:44:02.503Z,17.46
2023-04-16T14:46:06.710Z,17.78
2023-04-16T14:48:09.629Z,17.71
2023-04-16T14:50:13.087Z,17.86
2023-04-16T14:52:16.157Z,17.62
2023-04-16T14:54:19.688Z,17.80
2023-04-16T14:56:22.339Z,17.86
2023-04-16T14:58:26.043Z,17.92
2023-04-16T15:00:28.629Z,17.91
2023-04-16T15:02:31.513Z,17.72
2023-04-16T15:04:34.537Z,17.57
2023-04-16T15:06:39.090Z,17.78
2023-04-16T15:08:41.681Z,17.65
2023-04-16T15:10:45.903Z,17.39
2023-04-16T15:12:48.563Z,17.57
2023-04-16T15:14:51.092Z,17.72
2023-04-16T15:16:54.294Z,17.88
2023-04-16T15:18:57.805Z,17.79
2023-04-16T15:21:00.946Z,17.64
2023-04-16T15:23:04.658Z,17.92
2023-04-16T15:25:07.961Z,17.75
2023-04-16T15:27:14.740Z,17.62
2023-04-16T15:29:17.412Z,17.66
2023-04-16T15:31:21.206Z,17.52
2023-04-16T15:33:24.476Z,17.57
2023-04-16T15:35:27.699Z,17.34
2023-04-16T15:37:30.650Z,17.32
2023-04-16T15:39:33.301Z,17.22
2023-04-16T15:41:50.216Z,17.13
2023-04-16T15:43:59.919Z,17.50
2023-04-16T15:46:03.153Z,17.85
2023-04-16T15:48:06.861Z,17.44
2023-04-16T15:50:10.630Z,17.17
2023-04-16T15:52:13.699Z,17.02
2023-04-16T15:54:18.927Z,16.97
2023-04-16T15:56:21.563Z,17.22
2023-04-16T15:58:24.691Z,17.16
2023-04-16T16:00:28.402Z,16.84
2023-04-16T16:02:31.947Z,16.78
2023-04-16T16:04:36.060Z,16.76
2023-04-16T16:06:38.806Z,16.55
2023-04-16T16:08:42.281Z,16.37
2023-04-16T16:10:45.227Z,16.41
2023-04-16T16:12:51.318Z,16.28
2023-04-16T16:14:54.335Z,16.29
2023-04-16T16:16:56.856Z,16.48
2023-04-16T16:18:59.967Z,16.31
2023-04-16T16:21:03.574Z,16.43
2023-04-16T16:23:06.462Z,16.36
2023-04-16T16:25:10.430Z,16.40
2023-04-16T16:27:13.852Z,16.53
2023-04-16T16:29:16.929Z,16.60
2023-04-16T16:31:22.201Z,16.47
2023-04-16T16:33:25.426Z,16.43
2023-04-16T16:35:28.574Z,16.31
2023-04-16T16:37:34.602Z,16.20
2023-04-16T16:39:38.977Z,16.30
2023-04-16T16:41:42.553Z,16.35
2023-04-16T16:43:45.948Z,16.55
2023-04-16T16:45:50.593Z,16.36
2023-04-16T16:47:55.149Z,16.41
2023-04-16T16:50:02.603Z,16.58
2023-04-16T16:52:06.351Z,16.41
2023-04-16T16:54:10.992Z,16.37
2023-04-16T16:56:15.078Z,16.41
2023-04-16T16:58:18.608Z,16.44
2023-04-16T17:00:22.351Z,16.40
2023-04-16T17:02:25.688Z,16.29
2023-04-16T17:04:29.244Z,16.23
2023-04-16T17:06:33.595Z,16.29
2023-04-16T17:08:37.690Z,16.36
2023-04-16T17:10:41.198Z,16.40
2023-04-16T17:12:51.743Z,16.21
2023-04-16T17:14:55.959Z,16.11
2023-04-16T17:16:59.410Z,16.20
2023-04-16T17:19:03.022Z,16.08
2023-04-16T17:21:06.553Z,15.90
2023-04-16T17:23:09.854Z,15.83
2023-04-16T17:25:13.476Z,15.79
2023-04-16T17:27:16.601Z,15.76
2023-04-16T17:29:23.563Z,15.63
2023-04-16T17:31:27.656Z,15.52
2023-04-16T17:33:31.274Z,15.50
2023-04-16T17:35:37.669Z,15.47
2023-04-16T17:37:40.479Z,15.31
2023-04-16T17:39:43.746Z,15.21
2023-04-16T17:41:47.009Z,15.20
2023-04-16T17:43:52.435Z,15.15
2023-04-16T17:45:55.504Z,15.19
2023-04-16T17:47:59.431Z,15.11
2023-04-16T17:50:03.956Z,15.00
2023-04-16T17:52:07.273Z,15.02
2023-04-16T17:54:11.211Z,14.97
2023-04-16T17:56:16.001Z,14.84
2023-04-16T17:58:22.023Z,14.73
2023-04-16T18:00:25.338Z,14.76
2023-04-16T18:02:28.643Z,14.81
2023-04-16T18:04:32.441Z,14.85
2023-04-16T18:06:36.085Z,14.79
2023-04-16T18:08:39.599Z,14.80
2023-04-16T18:10:42.857Z,14.62
2023-04-16T18:12:46.697Z,14.59
2023-04-16T18:14:49.999Z,14.65
2023-04-16T18:16:52.939Z,14.53
2023-04-16T18:18:56.427Z,14.57
2023-04-16T18:21:00.211Z,14.44
2023-04-16T18:23:03.101Z,14.51
2023-04-16T18:25:07.298Z,14.53
2023-04-16T18:27:12.933Z,14.41
2023-04-16T18:29:17.817Z,14.36
2023-04-16T18:31:21.753Z,14.41
2023-04-16T18:33:52.558Z,14.26
2023-04-16T18:35:50.654Z,14.26
2023-04-16T18:37:54.184Z,14.22
2023-04-16T18:39:58.206Z,14.20
2023-04-16T18:42:02.115Z,14.19
2023-04-16T18:44:05.627Z,14.10
2023-04-16T18:46:09.283Z,14.17
2023-04-16T18:48:11.618Z,14.15
2023-04-16T18:50:14.669Z,14.18
2023-04-16T18:52:18.334Z,14.23
2023-04-16T18:54:23.193Z,14.19
2023-04-16T18:56:30.616Z,14.10
2023-04-16T18:58:35.100Z,14.17
2023-04-16T19:00:38.414Z,14.20
2023-04-16T19:02:41.775Z,14.16
2023-04-16T19:04:45.812Z,14.12
2023-04-16T19:06:49.069Z,14.11
2023-04-16T19:08:53.738Z,14.11
2023-04-16T19:10:59.375Z,14.11
2023-04-16T19:13:02.966Z,14.10
2023-04-16T19:15:07.426Z,14.19
2023-04-16T19:17:12.670Z,14.18
2023-04-16T19:19:19.779Z,14.19
2023-04-16T19:21:23.658Z,14.19
2023-04-16T19:23:27.326Z,14.18
2023-04-16T19:25:31.806Z,14.03
2023-04-16T19:27:37.118Z,14.03
2023-04-16T19:29:42.761Z,14.08
2023-04-16T19:31:47.272Z,14.14
2023-04-16T19:33:53.995Z,14.08
2023-04-16T19:35:57.469Z,14.02
2023-04-16T19:38:01.228Z,14.04
2023-04-16T19:40:06.636Z,14.03
2023-04-16T19:42:10.039Z,14.04
2023-04-16T19:44:13.770Z,14.01
2023-04-16T19:46:16.806Z,13.91
2023-04-16T19:48:21.932Z,13.90
2023-04-16T19:50:25.710Z,13.96
2023-04-16T19:52:29.333Z,13.87
2023-04-16T19:54:34.275Z,13.92
2023-04-16T19:56:39.755Z,13.87
2023-04-16T19:58:42.699Z,13.90
2023-04-16T20:00:46.910Z,13.82
2023-04-16T20:02:50.468Z,13.92
2023-04-16T20:04:53.721Z,13.92
2023-04-16T20:06:57.228Z,13.92
2023-04-16T20:09:00.607Z,13.88
2023-04-16T20:11:03.850Z,13.90
2023-04-16T20:13:12.301Z,13.92
2023-04-16T20:15:16.591Z,13.96
2023-04-16T20:17:20.274Z,13.81
2023-04-16T20:19:26.516Z,13.86
2023-04-16T20:21:29.450Z,13.86
2023-04-16T20:23:32.364Z,13.89
2023-04-16T20:25:36.936Z,13.83
2023-04-16T20:27:40.318Z,13.89
2023-04-16T20:29:43.569Z,13.90
2023-04-16T20:31:46.274Z,13.92
2023-04-16T20:33:49.275Z,13.88
2023-04-16T20:35:52.320Z,13.91
2023-04-16T20:37:55.076Z,13.93
2023-04-16T20:39:57.868Z,13.84
2023-04-16T20:42:00.936Z,13.78
2023-04-16T20:44:05.646Z,13.81
2023-04-16T20:46:09.491Z,13.80
2023-04-16T20:48:12.939Z,13.75
2023-04-16T20:50:16.018Z,13.70
2023-04-16T20:52:18.932Z,13.74
2023-04-16T20:54:21.535Z,13.72
2023-04-16T20:56:23.899Z,13.77
2023-04-16T20:58:27.465Z,13.82
2023-04-16T21:00:30.015Z,13.76
2023-04-16T21:02:32.772Z,13.68
2023-04-16T21:04:35.584Z,13.69
2023-04-16T21:06:38.705Z,13.71
2023-04-16T21:08:41.209Z,13.65
2023-04-16T21:10:45.220Z,13.74
2023-04-16T21:12:47.553Z,13.73
2023-04-16T21:14:49.840Z,13.66
2023-04-16T21:16:52.568Z,13.66
2023-04-16T21:18:55.642Z,13.57
2023-04-16T21:20:59.047Z,13.61
2023-04-16T21:23:02.772Z,13.63
2023-04-16T21:25:05.775Z,13.64
2023-04-16T21:27:08.142Z,13.64
2023-04-16T21:29:11.112Z,13.62
2023-04-16T21:31:13.648Z,13.58
2023-04-16T21:33:16.716Z,13.71
2023-04-16T21:35:19.477Z,13.62
2023-04-16T21:37:21.845Z,13.58
2023-04-16T21:39:27.533Z,13.59
2023-04-16T21:41:30.160Z,13.62
2023-04-16T21:43:32.677Z,13.60
2023-04-16T21:45:35.273Z,13.49
2023-04-16T21:47:38.303Z,13.37
2023-04-16T21:49:42.391Z,13.28
2023-04-16T21:51:46.140Z,13.31
2023-04-16T21:53:48.859Z,13.20
2023-04-16T21:55:51.191Z,13.15
2023-04-16T21:57:53.532Z,13.04
2023-04-16T21:59:56.319Z,13.06
2023-04-16T22:01:58.684Z,13.07
2023-04-16T22:04:02.162Z,13.09
2023-04-16T22:06:05.346Z,13.13
2023-04-16T22:08:23.246Z,13.09
2023-04-16T22:10:27.327Z,13.04
2023-04-16T22:12:30.609Z,13.09
2023-04-16T22:14:37.048Z,13.14
2023-04-16T22:16:40.270Z,13.12
